Time;durP1;ratioP1;P1;durP2;ratioP2;P2;SDS_P1;SDS_P2;PMS_P1;PMS_P2;Temp;Humidity;BMP_temperature;BMP_pressure;BME280_temperature;BME280_humidity;BME280_pressure;Samples;Min_cycle;Max_cycle;Signal;HPM_P1;HPM_P2
2020/12/07 00:00:36;;;;;;;42.30;16.37;;;;;;;-8.47;73.45;101927.05;1824649;78;21665;-78
2020/12/07 00:03:04;;;;;;;29.53;12.70;;;;;;;-8.48;73.62;101930.41;1825026;78;21596;-78
2020/12/07 00:05:32;;;;;;;23.80;11.23;;;;;;;-8.49;73.61;101932.84;1825114;78;22350;-78
2020/12/07 00:10:40;;;;;;;26.40;11.47;;;;;;;-8.53;73.79;101934.72;1811420;77;26656;-76
2020/12/07 00:13:08;;;;;;;31.57;12.00;;;;;;;-8.56;73.71;101942.15;1782665;80;21586;-76
2020/12/07 00:15:39;;;;;;;27.40;12.23;;;;;;;-8.58;73.79;101941.16;1782627;80;21377;-77
2020/12/07 00:18:06;;;;;;;23.00;10.50;;;;;;;-8.64;73.91;101935.64;1782570;79;21637;-77
2020/12/07 00:20:35;;;;;;;28.97;12.10;;;;;;;-8.64;73.97;101936.52;1782396;80;21171;-78
2020/12/07 00:23:04;;;;;;;23.87;8.70;;;;;;;-8.67;73.91;101939.75;1759432;80;21198;-77
2020/12/07 00:25:31;;;;;;;28.60;10.77;;;;;;;-8.70;73.99;101952.30;1751579;81;21610;-78
2020/12/07 00:28:00;;;;;;;29.50;12.60;;;;;;;-8.71;73.90;101938.16;1751445;81;21207;-77
2020/12/07 00:30:27;;;;;;;27.27;11.07;;;;;;;-8.71;73.78;101951.81;1751141;81;21203;-76
2020/12/07 00:32:55;;;;;;;28.93;12.10;;;;;;;-8.72;73.75;101951.33;1749606;82;21187;-76
2020/12/07 00:35:23;;;;;;;27.70;8.57;;;;;;;-8.73;73.69;101950.81;1749818;82;21623;-78
2020/12/07 00:37:51;;;;;;;31.60;13.37;;;;;;;-8.77;73.74;101956.48;1750017;82;21152;-79
2020/12/07 00:40:18;;;;;;;34.57;13.00;;;;;;;-8.82;73.74;101956.55;1716863;83;21358;-78
2020/12/07 00:42:46;;;;;;;31.00;12.47;;;;;;;-8.81;73.79;101952.33;1699575;84;21199;-79
2020/12/07 00:45:14;;;;;;;25.67;10.73;;;;;;;-8.83;73.72;101959.90;1751740;81;21235;-78
2020/12/07 00:49:48;;;;;;;26.70;9.13;;;;;;;-8.82;73.85;101951.45;1844741;77;26532;-77
2020/12/07 00:52:16;;;;;;;32.83;12.40;;;;;;;-8.87;73.77;101957.91;1822378;78;21144;-77
2020/12/07 00:54:45;;;;;;;26.33;10.87;;;;;;;-8.92;73.79;101951.59;1822564;78;21199;-78
2020/12/07 00:57:13;;;;;;;28.37;11.17;;;;;;;-8.92;73.58;101958.86;1807830;78;21136;-77
2020/12/07 00:59:42;;;;;;;30.77;12.37;;;;;;;-8.92;73.49;101945.20;1789704;80;21188;-77
2020/12/07 01:02:10;;;;;;;28.33;10.20;;;;;;;-8.93;73.46;101948.52;1789670;80;21152;-76
2020/12/07 01:04:38;;;;;;;30.83;12.37;;;;;;;-8.96;73.45;101948.31;1789862;80;21615;-77
2020/12/07 01:07:08;;;;;;;27.52;10.70;;;;;;;-8.95;73.49;101952.27;1790002;80;21367;-78
2020/12/07 01:09:36;;;;;;;39.17;13.27;;;;;;;-8.97;73.43;101944.89;1789755;80;21171;-76
2020/12/07 01:12:05;;;;;;;26.53;10.57;;;;;;;-9.00;73.42;101945.05;1790035;80;21647;-79
2020/12/07 01:14:36;;;;;;;35.87;13.60;;;;;;;-9.00;73.25;101950.15;1789308;80;21191;-76
2020/12/07 01:17:06;;;;;;;40.27;14.80;;;;;;;-9.09;73.47;101941.08;1789799;80;21612;-77
2020/12/07 01:19:35;;;;;;;32.83;11.63;;;;;;;-9.08;73.39;101941.56;1789697;80;21338;-79
2020/12/07 01:22:05;;;;;;;;;;;;;;;-9.08;73.31;101936.45;1792372;80;21152;-75
2020/12/07 01:24:34;;;;;;;43.37;13.80;;;;;;;-9.08;73.30;101945.39;1760962;80;20257;-79
2020/12/07 01:27:03;;;;;;;33.63;12.80;;;;;;;-9.11;73.15;101939.16;1790054;80;21166;-76
2020/12/07 01:29:31;;;;;;;35.97;12.80;;;;;;;-9.11;73.04;101939.16;1789723;80;21560;-77
2020/12/07 01:32:00;;;;;;;33.60;11.80;;;;;;;-9.10;73.07;101946.94;1761031;80;22199;-77
2020/12/07 01:34:28;;;;;;;28.80;11.70;;;;;;;-9.10;72.97;101941.84;1789590;80;21207;-76
2020/12/07 01:36:56;;;;;;;32.43;12.17;;;;;;;-9.13;72.89;101941.63;1789582;79;21179;-78
2020/12/07 01:39:24;;;;;;;24.70;10.67;;;;;;;-9.12;72.99;101941.23;1789758;80;21650;-77
2020/12/07 01:41:51;;;;;;;33.47;12.17;;;;;;;-9.12;72.98;101938.28;1789842;79;21626;-77
2020/12/07 01:44:20;;;;;;;47.67;16.17;;;;;;;-9.12;73.00;101934.45;1790010;80;21423;-79
2020/12/07 01:46:48;;;;;;;31.17;13.27;;;;;;;-9.12;72.79;101928.47;1790780;79;21668;-79
2020/12/07 01:49:17;;;;;;;29.63;10.30;;;;;;;-9.13;72.78;101921.21;1784635;80;21647;-75
2020/12/07 01:51:46;;;;;;;16.83;7.90;;;;;;;-9.13;72.69;101927.59;1781511;80;21172;-77
2020/12/07 01:54:14;;;;;;;21.00;8.57;;;;;;;-9.16;72.83;101914.98;1781675;80;21635;-76
2020/12/07 01:56:43;;;;;;;19.80;9.00;;;;;;;-9.20;72.82;101920.28;1781348;80;21641;-74
2020/12/07 01:59:12;;;;;;;35.10;13.07;;;;;;;-9.19;72.79;101923.31;1768236;80;21205;-74
2020/12/07 02:01:42;;;;;;;26.52;10.05;;;;;;;-9.19;72.57;101920.77;1780932;79;21627;-74
2020/12/07 02:04:11;;;;;;;27.73;9.87;;;;;;;-9.21;72.65;101910.83;1797371;79;21154;-76
2020/12/07 02:06:39;;;;;;;27.40;11.70;;;;;;;-9.20;72.56;101916.45;1797552;79;21625;-75
2020/12/07 02:09:07;;;;;;;33.70;12.73;;;;;;;-9.21;72.54;101909.56;1797716;79;22220;-75
2020/12/07 02:11:37;;;;;;;32.00;12.77;;;;;;;-9.24;72.52;101908.08;1644857;79;5018220;-76
2020/12/07 02:14:11;;;;;;;25.57;9.97;;;;;;;-9.17;72.67;101906.84;1811281;77;26683;-75
2020/12/07 02:16:40;;;;;;;25.10;10.63;;;;;;;-9.25;72.50;101906.28;1782293;80;21171;-75
2020/12/07 02:19:08;;;;;;;25.10;9.90;;;;;;;-9.26;72.56;101913.45;1782764;80;21591;-75
2020/12/07 02:21:38;;;;;;;29.50;12.13;;;;;;;-9.29;72.47;101918.35;1764098;80;21736;-75
2020/12/07 02:24:10;;;;;;;30.37;11.37;;;;;;;-9.33;72.58;101911.25;1749556;81;21206;-75
2020/12/07 02:26:40;;;;;;;33.40;13.25;;;;;;;-9.36;72.85;101918.66;1751608;81;21194;-75
2020/12/07 02:29:08;;;;;;;28.50;11.63;;;;;;;-9.40;72.76;101915.41;1751779;81;21678;-75
2020/12/07 02:31:38;;;;;;;20.95;9.53;;;;;;;-9.44;72.90;101915.57;1750584;81;21378;-76
2020/12/07 02:34:06;;;;;;;28.00;11.23;;;;;;;-9.47;72.88;101921.73;1751509;81;21166;-73
2020/12/07 02:36:36;;;;;;;28.13;11.20;;;;;;;-9.52;73.05;101910.32;1723397;81;21028;-74
2020/12/07 02:39:05;;;;;;;26.97;11.30;;;;;;;-9.53;72.99;101913.23;1750114;81;21172;-75
2020/12/07 02:41:34;;;;;;;27.70;11.40;;;;;;;-9.53;72.94;101913.23;1750164;81;21150;-75
2020/12/07 02:44:03;;;;;;;24.93;10.33;;;;;;;-9.53;72.97;101917.45;1751811;81;22779;-79
2020/12/07 02:46:30;;;;;;;24.60;10.10;;;;;;;-9.54;72.86;101903.82;1751958;81;21155;-79
2020/12/07 02:49:01;;;;;;;25.50;10.95;;;;;;;-9.57;72.82;101913.81;1752049;81;21131;-78
2020/12/07 02:51:29;;;;;;;24.17;10.03;;;;;;;-9.56;72.85;101904.09;1751934;81;21661;-78
2020/12/07 02:53:57;;;;;;;25.97;10.53;;;;;;;-9.58;72.76;101905.64;1751930;81;21147;-79
2020/12/07 02:56:25;;;;;;;23.00;10.40;;;;;;;-9.59;72.79;101907.71;1751620;81;22214;-77
2020/12/07 02:58:55;;;;;;;26.47;11.40;;;;;;;-9.58;72.84;101912.02;1751911;81;21226;-78
2020/12/07 03:01:22;;;;;;;27.40;9.90;;;;;;;-9.58;72.91;101917.52;1751824;80;21651;-77
2020/12/07 03:03:51;;;;;;;26.73;10.50;;;;;;;-9.59;72.93;101911.89;1752085;81;21143;-79
2020/12/07 03:06:20;;;;;;;30.17;11.37;;;;;;;-9.63;72.88;101913.36;1752470;81;21163;-78
2020/12/07 03:08:50;;;;;;;23.65;10.13;;;;;;;-9.64;72.87;101916.66;1752452;81;22159;-79
2020/12/07 03:11:19;;;;;;;31.43;10.13;;;;;;;-9.65;72.74;101922.55;1752127;81;21190;-78
2020/12/07 03:13:47;;;;;;;27.60;10.90;;;;;;;-9.65;72.79;101928.05;1746968;81;21143;-78
2020/12/07 03:16:17;;;;;;;22.57;10.23;;;;;;;-9.63;72.88;101926.11;1746959;82;21610;-80
2020/12/07 03:18:44;;;;;;;28.47;9.97;;;;;;;-9.64;72.97;101928.14;1747236;82;21110;-81
2020/12/07 03:21:14;;;;;;;23.30;10.30;;;;;;;-9.65;73.03;101921.67;1748424;81;21240;-80
2020/12/07 03:23:44;;;;;;;29.32;10.13;;;;;;;-9.65;72.95;101914.91;1748251;82;21147;-81
2020/12/07 03:26:15;;;;;;;;;;;;;;;-9.65;72.81;101913.62;1749978;82;21158;-82
2020/12/07 03:28:43;;;;;;;20.57;6.73;;;;;;;-9.68;72.82;101926.53;1747756;82;20296;-80
2020/12/07 03:31:11;;;;;;;28.63;11.20;;;;;;;-9.70;72.74;101921.34;1732175;82;21070;-82
2020/12/07 03:33:38;;;;;;;33.33;11.33;;;;;;;-9.68;72.69;101921.06;1708091;83;21385;-81
2020/12/07 03:36:08;;;;;;;25.67;11.10;;;;;;;-9.65;72.66;101922.55;1714029;83;21180;-83
2020/12/07 03:38:37;;;;;;;28.10;11.73;;;;;;;-9.65;72.59;101920.00;1707090;83;21118;-82
2020/12/07 03:41:04;;;;;;;22.87;8.70;;;;;;;-9.65;72.64;101920.40;1713509;83;21191;-81
2020/12/07 03:43:35;;;;;;;26.45;10.58;;;;;;;-9.67;72.62;101925.37;1713531;83;21177;-80
2020/12/07 03:46:02;;;;;;;25.60;10.10;;;;;;;-9.66;72.60;101915.70;1713648;82;21502;-81
2020/12/07 03:48:32;;;;;;;33.53;11.33;;;;;;;-9.64;72.57;101921.77;1713696;83;21115;-78
2020/12/07 03:51:01;;;;;;;32.30;11.40;;;;;;;-9.67;72.57;101925.37;1713447;83;21131;-81
2020/12/07 03:53:36;;;;;;;27.80;11.00;;;;;;;-9.65;72.48;101917.45;1713763;83;21143;-81
2020/12/07 03:56:06;;;;;;;27.17;10.10;;;;;;;-9.67;72.50;101921.55;1713917;82;21185;-83
2020/12/07 03:58:35;;;;;;;26.83;11.37;;;;;;;-9.66;72.44;101925.90;1718613;82;21501;-82
2020/12/07 04:01:04;;;;;;;21.37;9.03;;;;;;;-9.66;72.45;101925.90;1747749;82;21146;-82
2020/12/07 04:03:35;;;;;;;21.47;7.90;;;;;;;-9.67;72.50;101929.20;1748507;82;21135;-82
2020/12/07 04:06:13;;;;;;;;;;;;;;;-9.69;72.46;101916.73;1750539;81;21139;-81
2020/12/07 04:08:38;;;;;;;26.03;10.73;;;;;;;-9.66;72.52;101924.98;1748232;82;20244;-81
2020/12/07 04:11:06;;;;;;;25.00;10.20;;;;;;;-9.69;72.60;101921.83;1744160;81;21665;-78
2020/12/07 04:13:34;;;;;;;23.03;10.20;;;;;;;-9.70;72.51;101912.42;1751201;81;21158;-76
2020/12/07 04:16:03;;;;;;;25.77;10.53;;;;;;;-9.69;72.29;101908.20;1760480;81;21622;-79
2020/12/07 04:18:30;;;;;;;28.57;8.17;;;;;;;-9.72;72.36;101908.86;1760062;81;21146;-77
2020/12/07 04:21:02;;;;;;;30.23;11.37;;;;;;;-9.71;72.29;101911.89;1759993;80;21199;-76
2020/12/07 04:23:31;;;;;;;31.47;10.77;;;;;;;-9.71;72.33;101908.07;1760219;81;21658;-77
2020/12/07 04:26:00;;;;;;;29.07;11.08;;;;;;;-9.70;72.26;101916.23;1759983;81;21174;-73
2020/12/07 04:28:28;;;;;;;26.93;11.23;;;;;;;-9.72;72.17;101912.69;1760209;81;21638;-74
2020/12/07 04:30:57;;;;;;;24.93;8.60;;;;;;;-9.71;72.01;101905.16;1760083;81;21154;-75
2020/12/07 04:33:25;;;;;;;25.83;9.90;;;;;;;-9.69;72.02;101912.90;1759928;81;22324;-79
2020/12/07 04:35:53;;;;;;;31.20;11.17;;;;;;;-9.68;71.90;101914.70;1748890;81;22337;-76
2020/12/07 04:38:21;;;;;;;33.53;12.47;;;;;;;-9.68;71.91;101906.12;1729755;82;21472;-76
2020/12/07 04:40:49;;;;;;;28.90;10.93;;;;;;;-9.72;71.73;101907.59;1729700;82;21178;-75
2020/12/07 04:43:18;;;;;;;28.23;10.50;;;;;;;-9.72;71.79;101902.48;1729811;82;21893;-75
2020/12/07 04:45:46;;;;;;;18.83;8.93;;;;;;;-9.73;71.92;101901.61;1730073;82;21218;-75
2020/12/07 04:48:13;;;;;;;32.57;11.20;;;;;;;-9.73;71.91;101907.98;1729864;82;21744;-74
2020/12/07 04:50:41;;;;;;;27.97;12.27;;;;;;;-9.72;71.80;101905.04;1729883;82;21621;-76
2020/12/07 04:53:09;;;;;;;24.00;9.47;;;;;;;-9.73;71.64;101899.42;1729888;82;21536;-76
2020/12/07 04:55:37;;;;;;;29.43;11.50;;;;;;;-9.74;71.68;101902.77;1729902;82;21140;-77
2020/12/07 04:58:04;;;;;;;20.93;7.70;;;;;;;-9.74;71.60;101902.37;1729866;82;21197;-77
2020/12/07 05:00:32;;;;;;;30.37;10.93;;;;;;;-9.75;71.60;101902.27;1749383;81;21377;-78
2020/12/07 05:03:01;;;;;;;31.33;11.67;;;;;;;-9.74;71.66;101893.84;1697526;83;21185;-79
2020/12/07 05:05:29;;;;;;;31.43;11.43;;;;;;;-9.77;71.66;101898.72;1724198;83;21133;-78
2020/12/07 05:07:57;;;;;;;25.50;11.27;;;;;;;-9.76;71.56;101899.20;1723933;83;21153;-78
2020/12/07 05:10:41;;;;;;;28.17;11.27;;;;;;;-9.74;71.84;101895.11;1652012;83;21165;-80
2020/12/07 05:15:48;;;;;;;30.60;11.60;;;;;;;-9.71;71.33;101883.84;1889741;76;26541;-79
2020/12/07 05:18:16;;;;;;;32.37;11.20;;;;;;;-9.76;71.28;101889.89;1859458;77;21136;-78
2020/12/07 05:20:44;;;;;;;29.43;12.50;;;;;;;-9.79;71.42;101893.89;1835015;77;21487;-77
2020/12/07 05:23:16;;;;;;;23.50;10.60;;;;;;;-9.79;71.38;101892.62;1825690;78;21165;-76
2020/12/07 05:28:27;;;;;;;28.43;11.03;;;;;;;-9.77;71.34;101896.17;1852028;76;26593;-78
2020/12/07 05:30:52;;;;;;;26.77;10.00;;;;;;;-9.82;71.37;101886.00;1824118;78;21622;-78
2020/12/07 05:33:20;;;;;;;18.63;8.70;;;;;;;-9.80;71.40;101884.45;1824077;78;21206;-78
2020/12/07 05:35:52;;;;;;;32.57;11.10;;;;;;;-9.86;71.36;101886.19;1823816;78;21202;-77
2020/12/07 05:38:18;;;;;;;33.38;11.40;;;;;;;-9.84;71.33;101881.20;1824114;78;21723;-77
2020/12/07 05:40:46;;;;;;;29.93;11.93;;;;;;;-9.84;71.64;101890.13;1792501;78;21633;-75
2020/12/07 05:43:13;;;;;;;34.00;11.20;;;;;;;-9.85;71.53;101884.13;1823893;78;21633;-77
2020/12/07 05:45:42;;;;;;;23.40;8.57;;;;;;;-9.84;71.47;101891.41;1792985;78;21356;-76
2020/12/07 05:48:12;;;;;;;27.27;10.20;;;;;;;-9.85;71.39;101881.96;1791374;80;21134;-77
2020/12/07 05:50:43;;;;;;;28.67;10.63;;;;;;;-9.86;71.41;101892.95;1791570;80;21111;-76
2020/12/07 05:53:11;;;;;;;45.43;12.27;;;;;;;-9.84;71.61;101910.53;1791519;80;21747;-77
2020/12/07 05:55:38;;;;;;;37.60;12.20;;;;;;;-9.82;71.33;101905.13;1791439;79;21163;-79
2020/12/07 05:58:09;;;;;;;23.77;8.93;;;;;;;-9.82;71.29;101906.40;1761137;80;21658;-76
2020/12/07 06:00:37;;;;;;;27.22;11.68;;;;;;;-9.82;71.31;101912.77;1757754;81;21210;-79
2020/12/07 06:03:06;;;;;;;33.27;12.30;;;;;;;-9.81;71.49;101903.09;1767622;80;21162;-75
2020/12/07 06:05:34;;;;;;;27.13;9.67;;;;;;;-9.81;71.40;101898.88;1775758;79;21171;-75
2020/12/07 06:08:20;;;;;;;110.63;26.27;;;;;;;-9.78;71.38;101917.33;1779695;80;21625;-78
2020/12/07 06:11:00;;;;;;;41.10;14.17;;;;;;;-9.76;71.40;101911.95;1791060;80;21177;-77
2020/12/07 06:13:30;;;;;;;37.98;14.68;;;;;;;-9.75;71.33;101903.55;1791579;80;21637;-76
2020/12/07 06:15:58;;;;;;;103.45;28.17;;;;;;;-9.74;71.24;101905.31;1783423;80;21618;-77
2020/12/07 06:18:33;;;;;;;66.20;19.87;;;;;;;-9.75;71.31;101921.40;1761845;80;21205;-77
2020/12/07 06:21:15;;;;;;;50.27;14.27;;;;;;;-9.74;71.30;101909.13;1791965;80;21125;-76
2020/12/07 06:23:44;;;;;;;66.43;20.73;;;;;;;-9.70;71.39;101909.86;1791436;79;21210;-75
2020/12/07 06:26:14;;;;;;;45.67;16.37;;;;;;;-9.69;71.29;101907.80;1784905;79;21218;-71
2020/12/07 06:28:44;;;;;;;60.98;17.67;;;;;;;-9.65;71.25;101914.91;1785493;79;21115;-71
2020/12/07 06:31:17;;;;;;;30.52;11.33;;;;;;;-9.64;71.60;101901.36;1757610;81;21220;-71
2020/12/07 06:33:53;;;;;;;34.17;12.90;;;;;;;-9.57;71.26;101903.97;1731320;82;21570;-70
2020/12/07 06:36:33;;;;;;;30.20;10.43;;;;;;;-9.55;71.28;101909.68;1711126;83;21385;-71
2020/12/07 06:39:08;;;;;;;26.93;8.28;;;;;;;-9.53;71.08;101908.13;1739906;81;21232;-69
2020/12/07 06:41:42;;;;;;;45.23;12.50;;;;;;;-9.50;71.07;101908.37;1753921;81;21742;-72
2020/12/07 06:44:21;;;;;;;36.77;14.07;;;;;;;-9.45;71.02;101900.14;1756999;81;21643;-70
2020/12/07 06:47:10;;;;;;;32.17;12.67;;;;;;;-9.42;71.05;101899.11;1756860;81;21216;-70
2020/12/07 06:52:18;;;;;;;34.63;12.50;;;;;;;-9.31;70.75;101896.94;1730281;82;21166;-70
2020/12/07 06:55:05;;;;;;;35.27;14.47;;;;;;;-9.27;70.85;101897.63;1725269;82;21164;-70
2020/12/07 06:57:49;;;;;;;36.43;12.30;;;;;;;-9.26;70.71;101892.16;1730231;82;21154;-70
2020/12/07 07:00:22;;;;;;;38.70;11.37;;;;;;;-9.21;70.29;101896.80;1715193;82;21149;-70
2020/12/07 07:02:55;;;;;;;27.10;9.53;;;;;;;-9.15;70.30;101898.91;1751170;81;21216;-70
2020/12/07 07:05:25;;;;;;;36.70;12.97;;;;;;;-9.07;70.14;101891.39;1733369;81;21133;-70
2020/12/07 07:07:54;;;;;;;51.18;15.65;;;;;;;-8.68;69.04;101878.34;1724300;82;21209;-71
2020/12/07 07:10:24;;;;;;;52.23;17.73;;;;;;;-8.10;67.39;101874.95;1731981;82;21129;-70
2020/12/07 07:12:53;;;;;;;50.40;15.17;;;;;;;-7.48;65.64;101881.97;1731649;82;21172;-70
2020/12/07 07:15:21;;;;;;;25.00;10.20;;;;;;;-6.95;63.91;101887.41;1731724;82;22101;-72
2020/12/07 07:17:49;;;;;;;23.87;10.30;;;;;;;-6.44;61.59;101875.11;1720400;82;21754;-71
2020/12/07 07:20:17;;;;;;;54.80;15.70;;;;;;;-6.01;60.13;101878.93;1699491;84;21566;-71
2020/12/07 07:22:47;;;;;;;51.20;15.03;;;;;;;-5.55;59.02;101878.95;1694721;84;21223;-71
2020/12/07 07:30:30;;;;;;;67.77;21.93;;;;;;;-4.56;54.93;101873.19;1720503;83;21468;-71
2020/12/07 07:32:58;;;;;;;49.10;14.37;;;;;;;-4.26;54.66;101885.45;1720586;83;21623;-70
2020/12/07 07:35:29;;;;;;;27.67;12.33;;;;;;;-4.03;53.38;101875.04;1720464;83;21209;-70
2020/12/07 07:37:57;;;;;;;;;;;;;;;-3.81;51.78;101874.84;1697398;84;21151;-70
2020/12/07 07:40:27;;;;;;;32.38;12.28;;;;;;;-3.74;51.08;101869.59;1720448;83;21307;-69
2020/12/07 07:43:02;;;;;;;32.95;13.68;;;;;;;-3.68;52.05;101865.62;1720528;82;21598;-71
2020/12/07 07:45:37;;;;;;;33.85;12.98;;;;;;;-3.41;51.34;101863.88;1720586;83;21665;-69
2020/12/07 07:50:49;;;;;;;19.37;7.58;;;;;;;-2.92;49.25;101852.00;1720497;83;21588;-71
2020/12/07 08:16:22;;;;;;;33.90;12.30;;;;;;;-2.47;46.69;101857.42;1774671;77;23034;-71
2020/12/07 08:18:59;;;;;;;46.28;16.55;;;;;;;-2.26;46.92;101861.75;1750645;80;21651;-71
2020/12/07 08:21:32;;;;;;;40.30;16.87;;;;;;;-2.26;46.34;101864.33;1764922;80;21182;-71
2020/12/07 08:24:10;;;;;;;31.40;13.53;;;;;;;-2.57;46.52;101870.75;1764399;80;22117;-71
2020/12/07 08:26:44;;;;;;;42.10;15.58;;;;;;;-2.59;46.79;101858.19;1755138;81;21438;-71
2020/12/07 08:29:12;;;;;;;53.98;16.90;;;;;;;-2.33;46.56;101845.99;1755309;81;21168;-72
2020/12/07 08:31:40;;;;;;;38.17;13.15;;;;;;;-2.47;46.30;101845.81;1755321;81;21208;-71
2020/12/07 08:34:14;;;;;;;41.53;11.25;;;;;;;-2.48;46.41;101851.80;1755383;81;21176;-70
2020/12/07 08:36:45;;;;;;;45.10;15.72;;;;;;;-2.13;46.18;101840.39;1755364;81;21193;-71
2020/12/07 08:39:13;;;;;;;37.00;13.68;;;;;;;-1.83;45.70;101837.73;1755565;81;22004;-70
2020/12/07 08:41:41;;;;;;;34.60;13.40;;;;;;;-2.03;45.83;101835.20;1742559;81;21170;-71
2020/12/07 08:44:10;;;;;;;31.15;12.93;;;;;;;-1.90;45.43;101830.14;1737733;82;21563;-72
2020/12/07 08:46:39;;;;;;;31.82;13.00;;;;;;;-1.52;45.00;101832.98;1748568;80;21133;-71
2020/12/07 08:49:08;;;;;;;24.77;10.95;;;;;;;-1.17;43.80;101833.47;1754884;81;21597;-70
2020/12/07 08:51:37;;;;;;;22.98;10.28;;;;;;;-0.93;43.32;101819.69;1754852;81;22236;-71
2020/12/07 08:54:07;;;;;;;38.60;13.85;;;;;;;-1.12;42.85;101837.52;1754929;81;21157;-72
2020/12/07 08:56:34;;;;;;;30.13;13.33;;;;;;;-1.32;43.76;101827.70;1755010;81;21197;-71
2020/12/07 08:59:03;;;;;;;32.85;12.88;;;;;;;-1.11;43.38;101833.67;1759936;80;21590;-71
2020/12/07 09:01:31;;;;;;;38.17;13.28;;;;;;;-1.15;43.72;101822.78;1746798;81;21670;-69
2020/12/07 09:04:02;;;;;;;30.82;13.30;;;;;;;-1.16;43.77;101811.95;1737459;82;21602;-70
2020/12/07 09:06:30;;;;;;;45.25;14.68;;;;;;;-1.04;43.20;101815.81;1737433;80;22133;-71
2020/12/07 09:08:57;;;;;;;30.97;12.53;;;;;;;-0.95;43.13;101805.81;1737683;82;21206;-70
2020/12/07 09:11:26;;;;;;;24.95;10.45;;;;;;;-0.68;41.91;101793.88;1737511;82;21170;-70
2020/12/07 09:13:53;;;;;;;32.50;13.10;;;;;;;-0.70;41.92;101800.70;1737762;82;21122;-70
2020/12/07 09:16:21;;;;;;;25.23;10.90;;;;;;;-0.47;42.41;101800.64;1735902;79;22177;-71
2020/12/07 09:18:49;;;;;;;27.30;12.43;;;;;;;-0.19;42.09;101791.22;1737531;82;21195;-70
2020/12/07 09:21:17;;;;;;;40.75;13.43;;;;;;;-0.13;41.12;101783.67;1738794;81;21967;-70
2020/12/07 09:23:45;;;;;;;33.45;14.15;;;;;;;-0.03;41.16;101783.13;1741514;82;21165;-71
2020/12/07 09:26:13;;;;;;;27.05;11.35;;;;;;;0.16;41.05;101797.16;1741571;82;21224;-71
2020/12/07 09:28:41;;;;;;;22.17;11.18;;;;;;;0.18;40.01;101781.25;1741507;82;21158;-70
2020/12/07 09:31:09;;;;;;;28.12;11.05;;;;;;;0.36;39.80;101780.92;1746646;81;21102;-71
2020/12/07 09:33:39;;;;;;;30.70;13.13;;;;;;;0.40;40.19;101778.02;1753898;81;21576;-73
2020/12/07 09:36:07;;;;;;;29.63;12.53;;;;;;;0.55;39.81;101774.61;1730506;81;21616;-71
2020/12/07 09:38:35;;;;;;;25.30;11.55;;;;;;;0.44;40.01;101782.47;1754798;81;21185;-71
2020/12/07 09:41:03;;;;;;;26.25;11.18;;;;;;;0.40;39.31;101782.78;1755086;81;22712;-72
2020/12/07 09:43:31;;;;;;;25.05;11.30;;;;;;;0.29;39.33;101793.64;1754246;81;21637;-71
2020/12/07 09:46:00;;;;;;;32.13;12.75;;;;;;;-0.05;40.04;101782.19;1754434;81;21478;-71
2020/12/07 09:48:27;;;;;;;27.87;11.83;;;;;;;0.12;40.29;101775.86;1754913;81;21585;-71
2020/12/07 09:50:55;;;;;;;31.52;13.32;;;;;;;0.31;39.69;101779.03;1754701;81;21137;-70
2020/12/07 09:53:23;;;;;;;30.60;9.48;;;;;;;0.17;40.26;101761.33;1752140;81;22558;-70
2020/12/07 09:55:51;;;;;;;25.70;11.48;;;;;;;0.22;40.11;101774.86;1748573;81;21612;-71
2020/12/07 09:58:18;;;;;;;32.58;12.30;;;;;;;0.33;39.93;101774.78;1706189;83;21213;-70
2020/12/07 10:00:46;;;;;;;25.60;11.15;;;;;;;0.45;39.39;101769.09;1678467;85;21722;-70
2020/12/07 10:03:13;;;;;;;34.40;15.18;;;;;;;0.54;39.17;101766.35;1678694;85;21623;-70
2020/12/07 10:05:42;;;;;;;25.50;11.38;;;;;;;0.47;39.20;101758.35;1708725;84;22102;-72
2020/12/07 10:08:11;;;;;;;22.95;11.33;;;;;;;0.63;39.12;101759.27;1678703;85;21196;-71
2020/12/07 10:10:38;;;;;;;30.75;12.13;;;;;;;0.92;38.40;101744.56;1708909;84;22087;-71
2020/12/07 10:13:09;;;;;;;34.45;12.53;;;;;;;1.02;38.28;101742.67;1692435;84;21193;-71
2020/12/07 10:15:36;;;;;;;25.25;10.88;;;;;;;1.03;38.54;101739.23;1712017;83;21176;-71
2020/12/07 10:18:04;;;;;;;27.65;10.78;;;;;;;0.81;38.55;101730.41;1754865;81;21209;-71
2020/12/07 10:20:32;;;;;;;26.57;12.73;;;;;;;0.60;38.73;101740.62;1754922;81;21651;-71
2020/12/07 10:23:01;;;;;;;26.15;12.20;;;;;;;0.50;39.23;101719.13;1755003;81;21165;-71
2020/12/07 10:25:29;;;;;;;28.40;11.93;;;;;;;0.54;39.02;101717.09;1750841;81;21172;-72
2020/12/07 10:27:57;;;;;;;29.25;13.55;;;;;;;0.50;39.01;101720.84;1729385;81;21137;-73
2020/12/07 10:30:25;;;;;;;32.38;12.68;;;;;;;0.61;39.37;101713.84;1725079;82;22089;-73
2020/12/07 10:32:53;;;;;;;24.47;10.48;;;;;;;0.66;38.91;101712.68;1724867;83;21200;-75
2020/12/07 10:35:21;;;;;;;24.87;12.07;;;;;;;0.46;39.03;101718.98;1720663;81;21146;-74
2020/12/07 10:37:51;;;;;;;30.35;12.40;;;;;;;0.36;39.56;101720.44;1752937;81;21648;-74
2020/12/07 10:40:18;;;;;;;30.00;12.53;;;;;;;0.49;39.64;101719.11;1729366;81;21146;-73
2020/12/07 10:42:47;;;;;;;20.65;10.48;;;;;;;0.50;39.66;101719.13;1754740;81;21359;-72
2020/12/07 10:45:14;;;;;;;24.18;10.72;;;;;;;0.31;39.43;101715.54;1754930;81;21606;-71
2020/12/07 10:47:42;;;;;;;23.67;10.38;;;;;;;0.05;39.67;101719.50;1754933;81;21659;-70
2020/12/07 10:50:10;;;;;;;20.92;10.03;;;;;;;-0.07;40.29;101717.41;1755188;81;21632;-70
2020/12/07 10:52:37;;;;;;;19.12;9.25;;;;;;;-0.11;40.37;101721.15;1755073;81;21529;-72
2020/12/07 10:55:05;;;;;;;48.13;12.68;;;;;;;0.00;40.69;101713.31;1755146;81;21269;-72
2020/12/07 10:57:33;;;;;;;27.22;11.18;;;;;;;0.14;40.32;101712.02;1754895;81;21168;-73
2020/12/07 11:00:04;;;;;;;20.40;9.48;;;;;;;0.06;39.58;101708.30;1755072;81;21158;-70
2020/12/07 11:02:33;;;;;;;24.50;11.97;;;;;;;-0.16;40.20;101702.88;1744472;81;21154;-71
2020/12/07 11:05:01;;;;;;;26.17;11.60;;;;;;;-0.25;41.02;101716.83;1742877;82;21213;-71
2020/12/07 11:07:30;;;;;;;26.70;10.85;;;;;;;-0.26;41.74;101712.03;1741447;81;21579;-72
2020/12/07 11:09:59;;;;;;;29.27;12.88;;;;;;;-0.16;41.50;101707.16;1740738;82;21757;-72
2020/12/07 11:12:26;;;;;;;25.62;11.75;;;;;;;-0.15;41.72;101701.16;1740532;82;21192;-72
2020/12/07 11:14:54;;;;;;;37.78;15.08;;;;;;;-0.03;41.62;101702.83;1740620;82;21683;-70
2020/12/07 11:17:22;;;;;;;22.90;10.28;;;;;;;-0.03;41.84;101696.36;1740661;82;21136;-71
2020/12/07 11:19:51;;;;;;;41.73;14.65;;;;;;;-0.01;41.06;101685.63;1740614;82;21371;-71
2020/12/07 11:22:19;;;;;;;32.60;12.65;;;;;;;-0.20;41.75;101698.42;1740412;81;21108;-71
2020/12/07 11:24:46;;;;;;;28.25;12.65;;;;;;;-0.23;41.64;101684.97;1740613;82;21584;-73
2020/12/07 11:27:14;;;;;;;39.60;13.30;;;;;;;-0.31;41.72;101683.83;1740471;81;21176;-72
2020/12/07 11:29:42;;;;;;;24.12;10.55;;;;;;;-0.46;42.00;101688.50;1740510;82;21254;-72
2020/12/07 11:32:10;;;;;;;28.75;12.10;;;;;;;-0.62;42.18;101699.17;1740363;82;21595;-70
2020/12/07 11:34:38;;;;;;;31.10;11.33;;;;;;;-0.73;42.86;101689.36;1743298;81;21162;-74
2020/12/07 11:37:06;;;;;;;23.65;10.75;;;;;;;-0.78;42.56;101694.80;1755750;81;21664;-78
2020/12/07 11:42:22;;;;;;;32.05;11.65;;;;;;;-1.25;43.56;101690.11;1755727;81;21165;-75
2020/12/07 11:44:46;;;;;;;31.20;10.32;;;;;;;-1.28;44.02;101681.83;1754181;80;21646;-77
2020/12/07 11:47:15;;;;;;;25.12;10.90;;;;;;;-1.36;44.36;101688.83;1740530;81;21596;-79
2020/12/07 11:49:42;;;;;;;22.10;9.40;;;;;;;-1.40;44.48;101686.95;1754785;81;21394;-78
2020/12/07 11:52:10;;;;;;;24.98;10.63;;;;;;;-1.52;44.61;101680.54;1756317;81;21629;-77
2020/12/07 11:54:38;;;;;;;36.93;13.00;;;;;;;-1.64;44.95;101678.77;1755300;81;21588;-77
2020/12/07 11:57:07;;;;;;;31.35;12.75;;;;;;;-1.64;45.43;101675.31;1755487;81;21612;-79
2020/12/07 11:59:36;;;;;;;30.40;11.53;;;;;;;-1.44;45.09;101678.23;1733430;81;22076;-79
2020/12/07 12:02:06;;;;;;;36.17;13.03;;;;;;;-1.50;44.91;101672.82;1712684;83;21211;-78
2020/12/07 12:04:34;;;;;;;21.15;10.10;;;;;;;-1.50;45.58;101673.70;1741805;81;21205;-79
2020/12/07 12:07:02;;;;;;;27.07;11.83;;;;;;;-1.59;44.94;101674.65;1755078;81;21169;-80